sensor_id;sensor_type;location;lat;lon;timestamp;temperature;humidity
52016;DHT22;38032;53.326;6.472;2023-02-03T00:02:18;9.50;99.90
52016;DHT22;38032;53.326;6.472;2023-02-03T00:04:43;9.50;99.90
52016;DHT22;38032;53.326;6.472;2023-02-03T00:07:11;9.50;99.90
52016;DHT22;38032;53.326;6.472;2023-02-03T00:09:38;9.40;99.90
52016;DHT22;38032;53.326;6.472;2023-02-03T00:12:04;9.40;99.90
52016;DHT22;38032;53.326;6.472;2023-02-03T00:14:30;9.40;99.90
52016;DHT22;38032;53.326;6.472;2023-02-03T00:16:58;9.40;99.90
52016;DHT22;38032;53.326;6.472;2023-02-03T00:19:24;9.40;99.90
52016;DHT22;38032;53.326;6.472;2023-02-03T00:21:50;9.40;99.90
52016;DHT22;38032;53.326;6.472;2023-02-03T00:24:16;9.40;99.90
52016;DHT22;38032;53.326;6.472;2023-02-03T00:26:45;9.40;99.90
52016;DHT22;38032;53.326;6.472;2023-02-03T00:29:10;9.40;99.90
52016;DHT22;38032;53.326;6.472;2023-02-03T00:31:38;9.30;99.90
52016;DHT22;38032;53.326;6.472;2023-02-03T00:34:04;9.30;99.90
52016;DHT22;38032;53.326;6.472;2023-02-03T00:36:30;9.40;99.90
52016;DHT22;38032;53.326;6.472;2023-02-03T00:38:56;9.30;99.90
52016;DHT22;38032;53.326;6.472;2023-02-03T00:41:22;9.30;99.90
52016;DHT22;38032;53.326;6.472;2023-02-03T00:43:48;9.40;99.90
52016;DHT22;38032;53.326;6.472;2023-02-03T00:46:15;9.40;99.90
52016;DHT22;38032;53.326;6.472;2023-02-03T00:48:41;9.30;99.90
52016;DHT22;38032;53.326;6.472;2023-02-03T00:51:07;9.40;99.90
52016;DHT22;38032;53.326;6.472;2023-02-03T00:53:32;9.30;99.90
52016;DHT22;38032;53.326;6.472;2023-02-03T00:55:58;9.40;99.90
52016;DHT22;38032;53.326;6.472;2023-02-03T00:58:24;9.40;99.90
52016;DHT22;38032;53.326;6.472;2023-02-03T01:00:50;9.40;99.90
52016;DHT22;38032;53.326;6.472;2023-02-03T01:03:16;9.40;99.90
52016;DHT22;38032;53.326;6.472;2023-02-03T01:05:42;9.40;99.90
52016;DHT22;38032;53.326;6.472;2023-02-03T01:08:08;9.40;99.90
52016;DHT22;38032;53.326;6.472;2023-02-03T01:10:34;9.40;99.90
52016;DHT22;38032;53.326;6.472;2023-02-03T01:13:01;9.40;99.90
52016;DHT22;38032;53.326;6.472;2023-02-03T01:15:27;9.40;99.90
52016;DHT22;38032;53.326;6.472;2023-02-03T01:17:53;9.40;99.90
52016;DHT22;38032;53.326;6.472;2023-02-03T01:20:19;9.40;99.90
52016;DHT22;38032;53.326;6.472;2023-02-03T01:22:46;9.40;99.90
52016;DHT22;38032;53.326;6.472;2023-02-03T01:25:12;9.40;99.90
52016;DHT22;38032;53.326;6.472;2023-02-03T01:27:38;9.40;99.90
52016;DHT22;38032;53.326;6.472;2023-02-03T01:30:04;9.40;99.90
52016;DHT22;38032;53.326;6.472;2023-02-03T01:32:30;9.40;99.90
52016;DHT22;38032;53.326;6.472;2023-02-03T01:34:56;9.40;99.90
52016;DHT22;38032;53.326;6.472;2023-02-03T01:37:22;9.40;99.90
52016;DHT22;38032;53.326;6.472;2023-02-03T01:39:48;9.40;99.90
52016;DHT22;38032;53.326;6.472;2023-02-03T01:42:15;9.40;99.90
52016;DHT22;38032;53.326;6.472;2023-02-03T01:44:47;9.40;99.90
52016;DHT22;38032;53.326;6.472;2023-02-03T01:47:27;9.40;99.90
52016;DHT22;38032;53.326;6.472;2023-02-03T01:50:08;9.40;99.90
52016;DHT22;38032;53.326;6.472;2023-02-03T01:52:38;9.40;99.90
52016;DHT22;38032;53.326;6.472;2023-02-03T01:55:09;9.40;99.90
52016;DHT22;38032;53.326;6.472;2023-02-03T01:57:44;9.40;99.90
52016;DHT22;38032;53.326;6.472;2023-02-03T02:00:12;9.40;99.90
52016;DHT22;38032;53.326;6.472;2023-02-03T02:02:38;9.40;99.90
52016;DHT22;38032;53.326;6.472;2023-02-03T02:05:12;9.40;99.90
52016;DHT22;38032;53.326;6.472;2023-02-03T02:07:40;9.40;99.90
52016;DHT22;38032;53.326;6.472;2023-02-03T02:10:07;9.40;99.90
52016;DHT22;38032;53.326;6.472;2023-02-03T02:12:33;9.40;99.90
52016;DHT22;38032;53.326;6.472;2023-02-03T02:14:59;9.40;99.90
52016;DHT22;38032;53.326;6.472;2023-02-03T02:17:55;9.40;99.90
52016;DHT22;38032;53.326;6.472;2023-02-03T02:20:55;9.40;99.90
52016;DHT22;38032;53.326;6.472;2023-02-03T02:26:23;9.40;99.90
52016;DHT22;38032;53.326;6.472;2023-02-03T02:29:25;9.40;99.90
52016;DHT22;38032;53.326;6.472;2023-02-03T02:34:57;9.40;99.90
52016;DHT22;38032;53.326;6.472;2023-02-03T02:37:47;9.40;99.90
52016;DHT22;38032;53.326;6.472;2023-02-03T02:43:59;9.40;99.90
52016;DHT22;38032;53.326;6.472;2023-02-03T02:46:38;9.40;99.90
52016;DHT22;38032;53.326;6.472;2023-02-03T02:49:18;9.40;99.90
52016;DHT22;38032;53.326;6.472;2023-02-03T02:51:47;9.40;99.90
52016;DHT22;38032;53.326;6.472;2023-02-03T02:54:17;9.40;99.90
52016;DHT22;38032;53.326;6.472;2023-02-03T02:56:48;9.40;99.90
52016;DHT22;38032;53.326;6.472;2023-02-03T02:59:16;9.40;99.90
52016;DHT22;38032;53.326;6.472;2023-02-03T03:01:41;9.40;99.90
52016;DHT22;38032;53.326;6.472;2023-02-03T03:04:10;9.40;99.90
52016;DHT22;38032;53.326;6.472;2023-02-03T03:06:42;9.40;99.90
52016;DHT22;38032;53.326;6.472;2023-02-03T03:09:14;9.40;99.90
52016;DHT22;38032;53.326;6.472;2023-02-03T03:11:45;9.40;99.90
52016;DHT22;38032;53.326;6.472;2023-02-03T03:14:15;9.40;99.90
52016;DHT22;38032;53.326;6.472;2023-02-03T03:16:50;9.40;99.90
52016;DHT22;38032;53.326;6.472;2023-02-03T03:19:20;9.40;99.90
52016;DHT22;38032;53.326;6.472;2023-02-03T03:21:52;9.40;99.90
52016;DHT22;38032;53.326;6.472;2023-02-03T03:24:25;9.40;99.90
52016;DHT22;38032;53.326;6.472;2023-02-03T03:27:01;9.40;99.90
52016;DHT22;38032;53.326;6.472;2023-02-03T03:29:36;9.40;99.90
52016;DHT22;38032;53.326;6.472;2023-02-03T03:32:03;9.40;99.90
52016;DHT22;38032;53.326;6.472;2023-02-03T03:34:30;9.30;99.90
52016;DHT22;38032;53.326;6.472;2023-02-03T03:37:02;9.30;99.90
52016;DHT22;38032;53.326;6.472;2023-02-03T03:39:42;9.30;99.90
52016;DHT22;38032;53.326;6.472;2023-02-03T03:45:01;9.30;99.90
52016;DHT22;38032;53.326;6.472;2023-02-03T03:47:47;9.20;99.90
52016;DHT22;38032;53.326;6.472;2023-02-03T03:50:19;9.20;99.90
52016;DHT22;38032;53.326;6.472;2023-02-03T03:52:48;9.20;99.90
52016;DHT22;38032;53.326;6.472;2023-02-03T03:55:15;9.20;99.90
52016;DHT22;38032;53.326;6.472;2023-02-03T03:57:51;9.20;99.90
52016;DHT22;38032;53.326;6.472;2023-02-03T04:00:20;9.20;99.90
52016;DHT22;38032;53.326;6.472;2023-02-03T04:02:50;9.20;99.90
52016;DHT22;38032;53.326;6.472;2023-02-03T04:05:18;9.20;99.90
52016;DHT22;38032;53.326;6.472;2023-02-03T04:07:46;9.20;99.90
52016;DHT22;38032;53.326;6.472;2023-02-03T04:10:17;9.20;99.90
52016;DHT22;38032;53.326;6.472;2023-02-03T04:12:44;9.20;99.90
52016;DHT22;38032;53.326;6.472;2023-02-03T04:15:10;9.20;99.90
52016;DHT22;38032;53.326;6.472;2023-02-03T04:17:36;9.20;99.90
52016;DHT22;38032;53.326;6.472;2023-02-03T04:20:03;9.10;99.90
52016;DHT22;38032;53.326;6.472;2023-02-03T04:22:29;9.20;99.90
52016;DHT22;38032;53.326;6.472;2023-02-03T04:24:55;9.10;99.90
52016;DHT22;38032;53.326;6.472;2023-02-03T04:27:25;9.10;99.90
52016;DHT22;38032;53.326;6.472;2023-02-03T04:29:51;9.20;99.90
52016;DHT22;38032;53.326;6.472;2023-02-03T04:32:18;9.10;99.90
52016;DHT22;38032;53.326;6.472;2023-02-03T04:34:45;9.20;99.90
52016;DHT22;38032;53.326;6.472;2023-02-03T04:37:10;9.20;99.90
52016;DHT22;38032;53.326;6.472;2023-02-03T04:39:36;9.20;99.90
52016;DHT22;38032;53.326;6.472;2023-02-03T04:42:02;9.20;99.90
52016;DHT22;38032;53.326;6.472;2023-02-03T04:44:28;9.20;99.90
52016;DHT22;38032;53.326;6.472;2023-02-03T04:46:54;9.20;99.90
52016;DHT22;38032;53.326;6.472;2023-02-03T04:49:20;9.30;99.90
52016;DHT22;38032;53.326;6.472;2023-02-03T04:51:48;9.20;99.90
52016;DHT22;38032;53.326;6.472;2023-02-03T04:54:14;9.20;99.90
52016;DHT22;38032;53.326;6.472;2023-02-03T04:56:40;9.20;99.90
52016;DHT22;38032;53.326;6.472;2023-02-03T04:59:06;9.20;99.90
52016;DHT22;38032;53.326;6.472;2023-02-03T05:01:32;9.20;99.90
52016;DHT22;38032;53.326;6.472;2023-02-03T05:03:58;9.20;99.90
52016;DHT22;38032;53.326;6.472;2023-02-03T05:06:25;9.20;99.90
52016;DHT22;38032;53.326;6.472;2023-02-03T05:08:53;9.20;99.90
52016;DHT22;38032;53.326;6.472;2023-02-03T05:11:21;9.20;99.90
52016;DHT22;38032;53.326;6.472;2023-02-03T05:13:47;9.20;99.90
52016;DHT22;38032;53.326;6.472;2023-02-03T05:16:13;9.30;99.90
52016;DHT22;38032;53.326;6.472;2023-02-03T05:18:39;9.20;99.90
52016;DHT22;38032;53.326;6.472;2023-02-03T05:21:05;9.30;99.90
52016;DHT22;38032;53.326;6.472;2023-02-03T05:23:31;9.30;99.90
52016;DHT22;38032;53.326;6.472;2023-02-03T05:25:57;9.20;99.90
52016;DHT22;38032;53.326;6.472;2023-02-03T05:28:23;9.20;99.90
52016;DHT22;38032;53.326;6.472;2023-02-03T05:30:49;9.20;99.90
52016;DHT22;38032;53.326;6.472;2023-02-03T05:33:15;9.20;99.90
52016;DHT22;38032;53.326;6.472;2023-02-03T05:35:41;9.20;99.90
52016;DHT22;38032;53.326;6.472;2023-02-03T05:38:07;9.20;99.90
52016;DHT22;38032;53.326;6.472;2023-02-03T05:40:33;9.20;99.90
52016;DHT22;38032;53.326;6.472;2023-02-03T05:43:18;9.20;99.90
52016;DHT22;38032;53.326;6.472;2023-02-03T05:45:44;9.10;99.90
52016;DHT22;38032;53.326;6.472;2023-02-03T05:48:11;9.10;99.90
52016;DHT22;38032;53.326;6.472;2023-02-03T05:50:36;9.10;99.90
52016;DHT22;38032;53.326;6.472;2023-02-03T05:53:04;9.10;99.90
52016;DHT22;38032;53.326;6.472;2023-02-03T05:55:31;9.10;99.90
52016;DHT22;38032;53.326;6.472;2023-02-03T05:57:58;9.10;99.90
52016;DHT22;38032;53.326;6.472;2023-02-03T06:00:25;9.00;99.90
52016;DHT22;38032;53.326;6.472;2023-02-03T06:02:53;9.10;99.90
52016;DHT22;38032;53.326;6.472;2023-02-03T06:05:20;9.00;99.90
52016;DHT22;38032;53.326;6.472;2023-02-03T06:07:46;9.00;99.90
52016;DHT22;38032;53.326;6.472;2023-02-03T06:10:12;9.00;99.90
52016;DHT22;38032;53.326;6.472;2023-02-03T06:12:38;9.00;99.90
52016;DHT22;38032;53.326;6.472;2023-02-03T06:15:04;9.00;99.90
52016;DHT22;38032;53.326;6.472;2023-02-03T06:17:30;9.00;99.90
52016;DHT22;38032;53.326;6.472;2023-02-03T06:19:56;9.00;99.90
52016;DHT22;38032;53.326;6.472;2023-02-03T06:22:22;9.00;99.90
52016;DHT22;38032;53.326;6.472;2023-02-03T06:24:48;9.00;99.90
52016;DHT22;38032;53.326;6.472;2023-02-03T06:27:14;9.00;99.90
52016;DHT22;38032;53.326;6.472;2023-02-03T06:29:41;9.00;99.90
52016;DHT22;38032;53.326;6.472;2023-02-03T06:32:07;8.90;99.90
52016;DHT22;38032;53.326;6.472;2023-02-03T06:34:33;9.00;99.90
52016;DHT22;38032;53.326;6.472;2023-02-03T06:36:59;8.90;99.90
52016;DHT22;38032;53.326;6.472;2023-02-03T06:39:26;9.00;99.90
52016;DHT22;38032;53.326;6.472;2023-02-03T06:41:52;8.90;99.90
52016;DHT22;38032;53.326;6.472;2023-02-03T06:44:18;8.90;99.90
52016;DHT22;38032;53.326;6.472;2023-02-03T06:46:43;8.90;99.90
52016;DHT22;38032;53.326;6.472;2023-02-03T06:49:09;8.90;99.90
52016;DHT22;38032;53.326;6.472;2023-02-03T06:51:36;8.90;99.90
52016;DHT22;38032;53.326;6.472;2023-02-03T06:54:01;8.90;99.90
52016;DHT22;38032;53.326;6.472;2023-02-03T06:56:29;8.90;99.90
52016;DHT22;38032;53.326;6.472;2023-02-03T06:58:56;8.90;99.90
52016;DHT22;38032;53.326;6.472;2023-02-03T07:01:23;8.90;99.90
52016;DHT22;38032;53.326;6.472;2023-02-03T07:03:50;8.90;99.90
52016;DHT22;38032;53.326;6.472;2023-02-03T07:06:16;8.90;99.90
52016;DHT22;38032;53.326;6.472;2023-02-03T07:08:42;8.90;99.90
52016;DHT22;38032;53.326;6.472;2023-02-03T07:11:08;8.90;99.90
52016;DHT22;38032;53.326;6.472;2023-02-03T07:13:34;8.90;99.90
52016;DHT22;38032;53.326;6.472;2023-02-03T07:16:00;8.90;99.90
52016;DHT22;38032;53.326;6.472;2023-02-03T07:18:26;9.00;99.90
52016;DHT22;38032;53.326;6.472;2023-02-03T07:20:52;9.00;99.90
52016;DHT22;38032;53.326;6.472;2023-02-03T07:23:18;9.00;99.90
52016;DHT22;38032;53.326;6.472;2023-02-03T07:25:44;9.00;99.90
52016;DHT22;38032;53.326;6.472;2023-02-03T07:28:10;9.00;99.90
52016;DHT22;38032;53.326;6.472;2023-02-03T07:30:36;9.00;99.90
52016;DHT22;38032;53.326;6.472;2023-02-03T07:33:02;9.10;99.90
52016;DHT22;38032;53.326;6.472;2023-02-03T07:35:28;9.00;99.90
52016;DHT22;38032;53.326;6.472;2023-02-03T07:37:54;9.00;99.90
52016;DHT22;38032;53.326;6.472;2023-02-03T07:40:20;9.00;99.90
52016;DHT22;38032;53.326;6.472;2023-02-03T07:42:47;9.10;99.90
52016;DHT22;38032;53.326;6.472;2023-02-03T07:45:16;9.10;99.90
52016;DHT22;38032;53.326;6.472;2023-02-03T07:47:43;9.00;99.90
52016;DHT22;38032;53.326;6.472;2023-02-03T07:50:10;9.00;99.90
52016;DHT22;38032;53.326;6.472;2023-02-03T07:52:36;9.00;99.90
52016;DHT22;38032;53.326;6.472;2023-02-03T07:55:03;9.00;99.90
52016;DHT22;38032;53.326;6.472;2023-02-03T07:57:29;9.00;99.90
52016;DHT22;38032;53.326;6.472;2023-02-03T07:59:55;9.00;99.90
52016;DHT22;38032;53.326;6.472;2023-02-03T08:02:21;9.00;99.90
52016;DHT22;38032;53.326;6.472;2023-02-03T08:04:47;9.00;99.90
52016;DHT22;38032;53.326;6.472;2023-02-03T08:07:12;9.00;99.90
52016;DHT22;38032;53.326;6.472;2023-02-03T08:09:38;9.00;99.90
52016;DHT22;38032;53.326;6.472;2023-02-03T08:12:04;9.10;99.90
52016;DHT22;38032;53.326;6.472;2023-02-03T08:14:30;9.10;99.90
52016;DHT22;38032;53.326;6.472;2023-02-03T08:16:56;9.10;99.90
52016;DHT22;38032;53.326;6.472;2023-02-03T08:19:22;9.10;99.90
52016;DHT22;38032;53.326;6.472;2023-02-03T08:21:48;9.10;99.90
52016;DHT22;38032;53.326;6.472;2023-02-03T08:24:14;9.20;99.90
52016;DHT22;38032;53.326;6.472;2023-02-03T08:26:40;9.20;99.90
52016;DHT22;38032;53.326;6.472;2023-02-03T08:29:06;9.20;99.90
52016;DHT22;38032;53.326;6.472;2023-02-03T08:31:32;9.30;99.90
52016;DHT22;38032;53.326;6.472;2023-02-03T08:33:58;9.30;99.90
52016;DHT22;38032;53.326;6.472;2023-02-03T08:36:24;9.30;99.90
52016;DHT22;38032;53.326;6.472;2023-02-03T08:38:50;9.40;99.90
52016;DHT22;38032;53.326;6.472;2023-02-03T08:41:16;9.40;99.90
52016;DHT22;38032;53.326;6.472;2023-02-03T08:43:43;9.40;99.90
52016;DHT22;38032;53.326;6.472;2023-02-03T08:46:11;9.40;99.90
52016;DHT22;38032;53.326;6.472;2023-02-03T08:48:37;9.50;99.90
52016;DHT22;38032;53.326;6.472;2023-02-03T08:51:10;9.50;99.90
52016;DHT22;38032;53.326;6.472;2023-02-03T08:53:37;9.60;99.90
52016;DHT22;38032;53.326;6.472;2023-02-03T08:56:05;9.60;99.90
52016;DHT22;38032;53.326;6.472;2023-02-03T08:58:31;9.60;99.90
52016;DHT22;38032;53.326;6.472;2023-02-03T09:01:05;9.70;99.90
52016;DHT22;38032;53.326;6.472;2023-02-03T09:03:31;9.70;99.90
52016;DHT22;38032;53.326;6.472;2023-02-03T09:05:57;9.70;99.90
52016;DHT22;38032;53.326;6.472;2023-02-03T09:08:24;9.80;99.90
52016;DHT22;38032;53.326;6.472;2023-02-03T09:10:50;9.80;99.90
52016;DHT22;38032;53.326;6.472;2023-02-03T09:13:16;9.80;99.90
52016;DHT22;38032;53.326;6.472;2023-02-03T09:15:42;9.90;99.90
52016;DHT22;38032;53.326;6.472;2023-02-03T09:18:07;9.90;99.90
52016;DHT22;38032;53.326;6.472;2023-02-03T09:20:34;10.00;99.90
52016;DHT22;38032;53.326;6.472;2023-02-03T09:23:00;10.00;99.90
52016;DHT22;38032;53.326;6.472;2023-02-03T09:25:26;10.00;99.90
52016;DHT22;38032;53.326;6.472;2023-02-03T09:27:52;10.10;99.90
52016;DHT22;38032;53.326;6.472;2023-02-03T09:30:18;10.20;99.90
52016;DHT22;38032;53.326;6.472;2023-02-03T09:32:44;10.20;99.90
52016;DHT22;38032;53.326;6.472;2023-02-03T09:35:14;10.30;99.90
52016;DHT22;38032;53.326;6.472;2023-02-03T09:37:39;10.30;99.90
52016;DHT22;38032;53.326;6.472;2023-02-03T09:40:07;10.40;99.90
52016;DHT22;38032;53.326;6.472;2023-02-03T09:42:37;10.40;99.90
52016;DHT22;38032;53.326;6.472;2023-02-03T09:45:17;10.40;99.90
52016;DHT22;38032;53.326;6.472;2023-02-03T09:47:45;10.50;99.90
52016;DHT22;38032;53.326;6.472;2023-02-03T09:50:22;10.50;99.90
52016;DHT22;38032;53.326;6.472;2023-02-03T09:52:50;10.50;99.90
52016;DHT22;38032;53.326;6.472;2023-02-03T09:58:12;10.60;99.90
52016;DHT22;38032;53.326;6.472;2023-02-03T10:00:45;10.70;99.90
52016;DHT22;38032;53.326;6.472;2023-02-03T10:03:37;10.80;99.90
52016;DHT22;38032;53.326;6.472;2023-02-03T10:06:10;10.90;99.90
52016;DHT22;38032;53.326;6.472;2023-02-03T10:17:23;11.60;99.90
52016;DHT22;38032;53.326;6.472;2023-02-03T10:22:33;12.10;99.90
52016;DHT22;38032;53.326;6.472;2023-02-03T10:25:19;12.30;99.90
52016;DHT22;38032;53.326;6.472;2023-02-03T10:27:52;12.40;99.90
52016;DHT22;38032;53.326;6.472;2023-02-03T10:30:26;12.50;99.90
52016;DHT22;38032;53.326;6.472;2023-02-03T10:32:56;12.70;99.90
52016;DHT22;38032;53.326;6.472;2023-02-03T10:35:35;12.70;99.90
52016;DHT22;38032;53.326;6.472;2023-02-03T10:38:02;12.80;99.90
52016;DHT22;38032;53.326;6.472;2023-02-03T10:40:30;12.80;99.90
52016;DHT22;38032;53.326;6.472;2023-02-03T10:42:56;12.90;99.90
52016;DHT22;38032;53.326;6.472;2023-02-03T10:45:41;12.80;99.90
52016;DHT22;38032;53.326;6.472;2023-02-03T10:48:14;12.90;99.90
52016;DHT22;38032;53.326;6.472;2023-02-03T10:50:47;13.00;99.90
52016;DHT22;38032;53.326;6.472;2023-02-03T10:53:18;13.00;99.90
52016;DHT22;38032;53.326;6.472;2023-02-03T10:55:46;13.10;99.90
52016;DHT22;38032;53.326;6.472;2023-02-03T10:58:18;13.20;99.90
52016;DHT22;38032;53.326;6.472;2023-02-03T11:00:49;13.30;99.90
52016;DHT22;38032;53.326;6.472;2023-02-03T11:03:25;13.40;99.90
52016;DHT22;38032;53.326;6.472;2023-02-03T11:06:15;13.50;99.90
52016;DHT22;38032;53.326;6.472;2023-02-03T11:08:45;13.70;99.90
52016;DHT22;38032;53.326;6.472;2023-02-03T11:11:30;13.90;99.90
52016;DHT22;38032;53.326;6.472;2023-02-03T11:16:32;14.20;99.90
52016;DHT22;38032;53.326;6.472;2023-02-03T11:19:02;14.30;99.90
52016;DHT22;38032;53.326;6.472;2023-02-03T11:21:41;14.30;99.90
52016;DHT22;38032;53.326;6.472;2023-02-03T11:24:23;14.40;99.90
52016;DHT22;38032;53.326;6.472;2023-02-03T11:26:58;14.30;99.90
52016;DHT22;38032;53.326;6.472;2023-02-03T11:29:31;14.40;99.90
52016;DHT22;38032;53.326;6.472;2023-02-03T11:32:01;14.30;99.90
52016;DHT22;38032;53.326;6.472;2023-02-03T11:34:30;14.20;99.90
52016;DHT22;38032;53.326;6.472;2023-02-03T11:36:56;14.20;99.90
52016;DHT22;38032;53.326;6.472;2023-02-03T11:39:30;14.10;99.90
52016;DHT22;38032;53.326;6.472;2023-02-03T11:42:03;14.10;99.90
52016;DHT22;38032;53.326;6.472;2023-02-03T11:44:45;14.00;99.90
52016;DHT22;38032;53.326;6.472;2023-02-03T11:47:13;13.90;99.90
52016;DHT22;38032;53.326;6.472;2023-02-03T11:50:29;13.90;99.90
52016;DHT22;38032;53.326;6.472;2023-02-03T11:58:13;14.10;99.90
52016;DHT22;38032;53.326;6.472;2023-02-03T12:00:47;14.10;99.90
52016;DHT22;38032;53.326;6.472;2023-02-03T12:03:36;14.10;99.90
52016;DHT22;38032;53.326;6.472;2023-02-03T12:06:18;14.10;99.90
52016;DHT22;38032;53.326;6.472;2023-02-03T12:08:53;14.00;99.90
52016;DHT22;38032;53.326;6.472;2023-02-03T12:11:51;13.90;99.90
52016;DHT22;38032;53.326;6.472;2023-02-03T12:14:35;13.70;99.90
52016;DHT22;38032;53.326;6.472;2023-02-03T12:19:57;13.50;99.90
52016;DHT22;38032;53.326;6.472;2023-02-03T12:22:42;13.40;99.90
52016;DHT22;38032;53.326;6.472;2023-02-03T12:25:40;13.40;99.90
52016;DHT22;38032;53.326;6.472;2023-02-03T12:28:30;13.30;99.90
52016;DHT22;38032;53.326;6.472;2023-02-03T12:31:07;13.20;99.90
52016;DHT22;38032;53.326;6.472;2023-02-03T12:33:41;13.10;99.90
52016;DHT22;38032;53.326;6.472;2023-02-03T12:36:14;13.00;99.90
52016;DHT22;38032;53.326;6.472;2023-02-03T12:41:15;12.80;99.90
52016;DHT22;38032;53.326;6.472;2023-02-03T12:43:45;12.70;99.90
52016;DHT22;38032;53.326;6.472;2023-02-03T12:46:21;12.50;99.90
52016;DHT22;38032;53.326;6.472;2023-02-03T12:51:30;12.30;99.90
52016;DHT22;38032;53.326;6.472;2023-02-03T12:54:06;12.20;99.90
52016;DHT22;38032;53.326;6.472;2023-02-03T12:56:40;12.00;99.90
52016;DHT22;38032;53.326;6.472;2023-02-03T12:59:14;11.90;99.90
52016;DHT22;38032;53.326;6.472;2023-02-03T13:01:48;11.80;99.90
52016;DHT22;38032;53.326;6.472;2023-02-03T13:06:57;11.60;99.90
52016;DHT22;38032;53.326;6.472;2023-02-03T13:09:32;11.50;99.90
52016;DHT22;38032;53.326;6.472;2023-02-03T13:14:51;11.40;99.90
52016;DHT22;38032;53.326;6.472;2023-02-03T13:17:19;11.40;99.90
52016;DHT22;38032;53.326;6.472;2023-02-03T13:19:49;11.50;99.90
52016;DHT22;38032;53.326;6.472;2023-02-03T13:22:17;11.40;99.90
52016;DHT22;38032;53.326;6.472;2023-02-03T13:24:52;11.40;99.90
52016;DHT22;38032;53.326;6.472;2023-02-03T13:27:41;11.40;99.90
52016;DHT22;38032;53.326;6.472;2023-02-03T13:30:26;11.40;99.90
52016;DHT22;38032;53.326;6.472;2023-02-03T13:43:43;11.10;99.90
52016;DHT22;38032;53.326;6.472;2023-02-03T13:46:21;11.10;99.90
52016;DHT22;38032;53.326;6.472;2023-02-03T13:48:48;11.00;99.90
52016;DHT22;38032;53.326;6.472;2023-02-03T13:51:21;11.00;99.90
52016;DHT22;38032;53.326;6.472;2023-02-03T13:53:50;11.00;99.90
52016;DHT22;38032;53.326;6.472;2023-02-03T13:56:18;10.90;99.90
52016;DHT22;38032;53.326;6.472;2023-02-03T13:59:05;10.90;99.90
52016;DHT22;38032;53.326;6.472;2023-02-03T14:01:34;10.90;99.90
52016;DHT22;38032;53.326;6.472;2023-02-03T14:04:05;10.80;99.90
52016;DHT22;38032;53.326;6.472;2023-02-03T14:14:42;10.70;99.90
52016;DHT22;38032;53.326;6.472;2023-02-03T14:22:58;10.70;99.90
52016;DHT22;38032;53.326;6.472;2023-02-03T14:25:32;10.60;99.90
52016;DHT22;38032;53.326;6.472;2023-02-03T14:28:08;10.60;99.90
52016;DHT22;38032;53.326;6.472;2023-02-03T14:31:01;10.60;99.90
52016;DHT22;38032;53.326;6.472;2023-02-03T14:36:28;10.50;99.90
52016;DHT22;38032;53.326;6.472;2023-02-03T14:38:57;10.50;99.90
52016;DHT22;38032;53.326;6.472;2023-02-03T14:41:43;10.50;99.90
52016;DHT22;38032;53.326;6.472;2023-02-03T14:49:40;10.40;99.90
52016;DHT22;38032;53.326;6.472;2023-02-03T14:55:29;10.30;99.90
52016;DHT22;38032;53.326;6.472;2023-02-03T14:58:02;10.20;99.90
52016;DHT22;38032;53.326;6.472;2023-02-03T15:00:31;10.10;99.90
52016;DHT22;38032;53.326;6.472;2023-02-03T15:05:42;10.00;99.90
52016;DHT22;38032;53.326;6.472;2023-02-03T15:08:40;9.90;99.90
52016;DHT22;38032;53.326;6.472;2023-02-03T15:13:48;9.80;99.90
52016;DHT22;38032;53.326;6.472;2023-02-03T15:16:18;9.70;99.90
52016;DHT22;38032;53.326;6.472;2023-02-03T15:18:44;9.60;99.90
52016;DHT22;38032;53.326;6.472;2023-02-03T15:21:16;9.60;99.90
52016;DHT22;38032;53.326;6.472;2023-02-03T15:23:44;9.50;99.90
52016;DHT22;38032;53.326;6.472;2023-02-03T15:26:22;9.50;99.90
52016;DHT22;38032;53.326;6.472;2023-02-03T15:28:56;9.50;99.90
52016;DHT22;38032;53.326;6.472;2023-02-03T15:31:30;9.40;99.90
52016;DHT22;38032;53.326;6.472;2023-02-03T15:34:08;9.30;99.90
52016;DHT22;38032;53.326;6.472;2023-02-03T15:36:41;9.20;99.90
52016;DHT22;38032;53.326;6.472;2023-02-03T15:39:20;9.20;99.90
52016;DHT22;38032;53.326;6.472;2023-02-03T15:41:49;9.20;99.90
52016;DHT22;38032;53.326;6.472;2023-02-03T15:44:31;9.20;99.90
52016;DHT22;38032;53.326;6.472;2023-02-03T15:47:00;9.20;99.90
52016;DHT22;38032;53.326;6.472;2023-02-03T15:49:33;9.20;99.90
52016;DHT22;38032;53.326;6.472;2023-02-03T15:52:10;9.20;99.90
52016;DHT22;38032;53.326;6.472;2023-02-03T15:54:41;9.20;99.90
52016;DHT22;38032;53.326;6.472;2023-02-03T15:59:49;9.20;99.90
52016;DHT22;38032;53.326;6.472;2023-02-03T16:02:21;9.10;99.90
52016;DHT22;38032;53.326;6.472;2023-02-03T16:04:51;9.10;99.90
52016;DHT22;38032;53.326;6.472;2023-02-03T16:07:25;9.10;99.90
52016;DHT22;38032;53.326;6.472;2023-02-03T16:09:53;9.10;99.90
52016;DHT22;38032;53.326;6.472;2023-02-03T16:12:25;9.00;99.90
52016;DHT22;38032;53.326;6.472;2023-02-03T16:14:52;9.00;99.90
52016;DHT22;38032;53.326;6.472;2023-02-03T16:17:28;9.00;99.90
52016;DHT22;38032;53.326;6.472;2023-02-03T16:22:41;8.90;99.90
52016;DHT22;38032;53.326;6.472;2023-02-03T16:25:21;8.80;99.90
52016;DHT22;38032;53.326;6.472;2023-02-03T16:27:58;8.80;99.90
52016;DHT22;38032;53.326;6.472;2023-02-03T16:33:45;8.80;99.90
52016;DHT22;38032;53.326;6.472;2023-02-03T16:36:30;8.80;99.90
52016;DHT22;38032;53.326;6.472;2023-02-03T16:39:14;8.80;99.90
52016;DHT22;38032;53.326;6.472;2023-02-03T16:41:59;8.80;99.90
52016;DHT22;38032;53.326;6.472;2023-02-03T16:44:44;8.80;99.90
52016;DHT22;38032;53.326;6.472;2023-02-03T16:47:31;8.80;99.90
52016;DHT22;38032;53.326;6.472;2023-02-03T16:50:18;8.80;99.90
52016;DHT22;38032;53.326;6.472;2023-02-03T16:53:03;8.80;99.90
52016;DHT22;38032;53.326;6.472;2023-02-03T16:55:29;8.80;99.90
52016;DHT22;38032;53.326;6.472;2023-02-03T16:57:55;8.80;99.90
52016;DHT22;38032;53.326;6.472;2023-02-03T17:00:21;8.90;99.90
52016;DHT22;38032;53.326;6.472;2023-02-03T17:02:48;8.90;99.90
52016;DHT22;38032;53.326;6.472;2023-02-03T17:05:15;8.90;99.90
52016;DHT22;38032;53.326;6.472;2023-02-03T17:07:41;8.90;99.90
52016;DHT22;38032;53.326;6.472;2023-02-03T17:10:08;9.00;99.90
52016;DHT22;38032;53.326;6.472;2023-02-03T17:12:34;9.00;99.90
52016;DHT22;38032;53.326;6.472;2023-02-03T17:15:03;9.00;99.90
52016;DHT22;38032;53.326;6.472;2023-02-03T17:17:30;9.00;99.90
52016;DHT22;38032;53.326;6.472;2023-02-03T17:19:56;9.10;99.90
52016;DHT22;38032;53.326;6.472;2023-02-03T17:22:24;9.10;99.90
52016;DHT22;38032;53.326;6.472;2023-02-03T17:24:50;9.10;99.90
52016;DHT22;38032;53.326;6.472;2023-02-03T17:27:16;9.10;99.90
52016;DHT22;38032;53.326;6.472;2023-02-03T17:29:42;9.10;99.90
52016;DHT22;38032;53.326;6.472;2023-02-03T17:32:08;9.10;99.90
52016;DHT22;38032;53.326;6.472;2023-02-03T17:34:34;9.10;99.90
52016;DHT22;38032;53.326;6.472;2023-02-03T17:37:00;9.10;99.90
52016;DHT22;38032;53.326;6.472;2023-02-03T17:39:25;9.10;99.90
52016;DHT22;38032;53.326;6.472;2023-02-03T17:41:52;9.20;99.90